createdAt,value
2018-03-28T00:00:10.255Z,95170.20
2018-03-28T00:02:38.693Z,95167.91
2018-03-28T00:05:07.015Z,95177.80
2018-03-28T00:07:35.481Z,95174.34
2018-03-28T00:10:03.799Z,95176.64
2018-03-28T00:12:32.108Z,95158.80
2018-03-28T00:15:00.487Z,95174.05
2018-03-28T00:17:28.819Z,95176.72
2018-03-28T00:19:57.253Z,95153.41
2018-03-28T00:22:25.577Z,95164.45
2018-03-28T00:24:54.006Z,95168.54
2018-03-28T00:27:22.350Z,95160.20
2018-03-28T00:29:50.712Z,95159.69
2018-03-28T00:32:19.138Z,95155.00
2018-03-28T00:34:47.705Z,95159.84
2018-03-28T00:37:16.110Z,95149.45
2018-03-28T00:39:44.476Z,95150.34
2018-03-28T00:42:12.887Z,95137.23
2018-03-28T00:44:41.227Z,95130.98
2018-03-28T00:47:10.435Z,95126.33
2018-03-28T00:49:38.775Z,95130.91
2018-03-28T00:52:07.086Z,95122.38
2018-03-28T00:54:35.428Z,95124.25
2018-03-28T00:57:03.739Z,95121.73
2018-03-28T00:59:32.124Z,95122.37
2018-03-28T01:02:00.502Z,95114.65
2018-03-28T01:04:28.851Z,95114.08
2018-03-28T01:06:57.210Z,95117.97
2018-03-28T01:09:25.587Z,95127.53
2018-03-28T01:11:53.895Z,95115.34
2018-03-28T01:14:22.236Z,95118.03
2018-03-28T01:16:50.554Z,95110.78
2018-03-28T01:19:18.950Z,95105.45
2018-03-28T01:21:47.287Z,95103.91
2018-03-28T01:24:15.704Z,95101.50
2018-03-28T01:26:44.081Z,95097.34
2018-03-28T01:29:12.449Z,95092.44
2018-03-28T01:31:41.755Z,95090.69
2018-03-28T01:34:10.072Z,95087.46
2018-03-28T01:36:38.517Z,95086.66
2018-03-28T01:39:06.831Z,95086.61
2018-03-28T01:41:35.172Z,95082.31
2018-03-28T01:44:03.510Z,95078.27
2018-03-28T01:46:32.798Z,95083.04
2018-03-28T01:49:01.134Z,95070.63
2018-03-28T01:51:29.506Z,95062.77
2018-03-28T01:53:57.880Z,95066.99
2018-03-28T01:56:26.205Z,95063.61
2018-03-28T01:58:54.518Z,95059.26
2018-03-28T02:01:22.882Z,95061.80
2018-03-28T02:03:51.297Z,95056.88
2018-03-28T02:06:19.661Z,95057.04
2018-03-28T02:08:48.003Z,95051.45
2018-03-28T02:11:16.415Z,95041.80
2018-03-28T02:13:44.795Z,95032.29
2018-03-28T02:16:13.179Z,95036.41
2018-03-28T02:18:41.555Z,95035.05
2018-03-28T02:21:09.883Z,95033.19
2018-03-28T02:23:38.232Z,95033.91
2018-03-28T02:26:06.550Z,95029.77
2018-03-28T02:28:34.887Z,95030.54
2018-03-28T02:31:03.342Z,95029.45
2018-03-28T02:33:31.666Z,95031.58
2018-03-28T02:36:00.027Z,95022.81
2018-03-28T02:38:28.380Z,95024.22
2018-03-28T02:40:56.740Z,95013.41
2018-03-28T02:43:25.128Z,95019.45
2018-03-28T02:45:53.463Z,95013.45
2018-03-28T02:48:21.889Z,95013.45
2018-03-28T02:50:50.234Z,95011.23
2018-03-28T02:53:18.573Z,95004.95
2018-03-28T02:55:46.903Z,94998.59
2018-03-28T02:58:15.231Z,95006.84
2018-03-28T03:00:43.562Z,95005.73
2018-03-28T03:03:11.887Z,95002.58
2018-03-28T03:05:40.234Z,95001.39
2018-03-28T03:08:08.543Z,95008.22
2018-03-28T03:10:36.884Z,95011.44
2018-03-28T03:13:05.254Z,95008.58
2018-03-28T03:15:33.608Z,95012.73
2018-03-28T03:18:01.931Z,95015.81
2018-03-28T03:20:30.303Z,95009.17
2018-03-28T03:22:58.681Z,95005.77
2018-03-28T03:25:27.030Z,95004.03
2018-03-28T03:27:56.373Z,95003.80
2018-03-28T03:30:24.735Z,95007.11
2018-03-28T03:32:53.105Z,94996.67
2018-03-28T03:35:21.426Z,95006.00
2018-03-28T03:37:49.774Z,94998.59
2018-03-28T03:40:18.105Z,94995.25
2018-03-28T03:42:46.454Z,94997.89
2018-03-28T03:45:14.798Z,95002.23
2018-03-28T03:47:43.182Z,95008.08
2018-03-28T03:50:11.592Z,95005.10
2018-03-28T03:52:39.940Z,95004.07
2018-03-28T03:55:08.275Z,95008.19
2018-03-28T03:57:36.654Z,95002.09
2018-03-28T04:00:05.085Z,94999.40
2018-03-28T04:02:33.443Z,94997.81
2018-03-28T04:05:01.755Z,94997.59
2018-03-28T04:07:30.106Z,94989.20
2018-03-28T04:09:58.478Z,94996.64
2018-03-28T04:12:26.854Z,94998.14
2018-03-28T04:14:55.232Z,94997.98
2018-03-28T04:17:23.605Z,95012.80
2018-03-28T04:19:51.966Z,94996.47
2018-03-28T04:22:20.361Z,95002.03
2018-03-28T04:24:48.742Z,95002.64
2018-03-28T04:27:17.122Z,95004.70
2018-03-28T04:29:45.511Z,95009.31
2018-03-28T04:32:13.877Z,95009.39
2018-03-28T04:34:42.224Z,95017.16
2018-03-28T04:37:10.545Z,95010.88
2018-03-28T04:39:38.898Z,95013.73
2018-03-28T04:42:07.291Z,95018.72
2018-03-28T04:44:36.591Z,95015.40
2018-03-28T04:47:04.891Z,95018.97
2018-03-28T04:49:33.251Z,95017.28
2018-03-28T04:52:01.626Z,95022.42
2018-03-28T04:54:30.011Z,95017.15
2018-03-28T04:56:58.345Z,95019.38
2018-03-28T04:59:26.666Z,95016.20
2018-03-28T05:01:55.014Z,95019.52
2018-03-28T05:04:23.422Z,95016.61
2018-03-28T05:06:51.739Z,95019.86
2018-03-28T05:09:20.074Z,95015.48
2018-03-28T05:11:48.407Z,95020.64
2018-03-28T05:14:16.757Z,95021.75
2018-03-28T05:16:45.108Z,95021.50
2018-03-28T05:19:13.491Z,95016.19
2018-03-28T05:21:41.804Z,95016.67
2018-03-28T05:24:10.243Z,95009.30
2018-03-28T05:26:38.543Z,95021.19
2018-03-28T05:29:07.240Z,95015.33
2018-03-28T05:31:35.535Z,95025.86
2018-03-28T05:34:03.871Z,95012.77
2018-03-28T05:36:32.189Z,95021.78
2018-03-28T05:39:00.515Z,95022.50
2018-03-28T05:41:28.850Z,95016.16
2018-03-28T05:43:57.198Z,95026.75
2018-03-28T05:46:25.502Z,95024.06
2018-03-28T05:48:53.926Z,95031.16
2018-03-28T05:51:22.267Z,95025.05
2018-03-28T05:53:50.672Z,95018.23
2018-03-28T05:56:19.011Z,95024.84
2018-03-28T05:58:47.331Z,95027.24
2018-03-28T06:01:15.675Z,95022.39
2018-03-28T06:03:43.988Z,95029.42
2018-03-28T06:06:12.353Z,95035.19
2018-03-28T06:08:40.680Z,95029.50
2018-03-28T06:11:09.002Z,95029.96
2018-03-28T06:13:37.314Z,95030.19
2018-03-28T06:16:05.671Z,95026.91
2018-03-28T06:18:34.050Z,95026.19
2018-03-28T06:21:02.422Z,95021.20
2018-03-28T06:23:30.720Z,95021.03
2018-03-28T06:25:59.094Z,95023.66
2018-03-28T06:28:27.392Z,95024.33
2018-03-28T06:30:55.734Z,95028.63
2018-03-28T06:33:24.118Z,95027.61
2018-03-28T06:35:52.599Z,95029.91
2018-03-28T06:38:20.939Z,95023.33
2018-03-28T06:40:49.329Z,95020.15
2018-03-28T06:43:17.743Z,95017.08
2018-03-28T06:45:46.106Z,95019.81
2018-03-28T06:48:14.445Z,95018.52
2018-03-28T06:50:42.755Z,95023.42
2018-03-28T06:53:11.144Z,95016.69
2018-03-28T06:55:39.522Z,95019.29
2018-03-28T06:58:07.858Z,95021.26
2018-03-28T07:00:36.180Z,95022.83
2018-03-28T07:03:04.529Z,95022.50
2018-03-28T07:05:32.871Z,95018.62
2018-03-28T07:08:01.233Z,95023.74
2018-03-28T07:10:29.546Z,95021.27
2018-03-28T07:12:57.873Z,95021.00
2018-03-28T07:15:26.209Z,95018.73
2018-03-28T07:17:54.543Z,95022.05
2018-03-28T07:20:22.891Z,95010.97
2018-03-28T07:22:51.247Z,95026.01
2018-03-28T07:25:19.591Z,95032.30
2018-03-28T07:27:47.948Z,95026.69
2018-03-28T07:30:16.247Z,95028.46
2018-03-28T07:32:44.558Z,95026.34
2018-03-28T07:35:12.903Z,95036.57
2018-03-28T07:37:41.238Z,95017.48
2018-03-28T07:40:09.582Z,95033.95
2018-03-28T07:42:37.894Z,95028.02
2018-03-28T07:45:06.285Z,95020.98
2018-03-28T07:47:34.589Z,95025.28
2018-03-28T07:50:02.932Z,95020.03
2018-03-28T07:52:31.303Z,95030.46
2018-03-28T07:54:59.683Z,95029.41
2018-03-28T07:57:28.894Z,95040.08
2018-03-28T07:59:57.226Z,95019.17
2018-03-28T08:02:25.531Z,95018.64
2018-03-28T08:04:53.867Z,95021.97
2018-03-28T08:07:22.171Z,95016.48
2018-03-28T08:09:50.508Z,95033.89
2018-03-28T08:12:18.818Z,95021.67
2018-03-28T08:14:47.179Z,95008.44
2018-03-28T08:17:15.590Z,95013.23
2018-03-28T08:19:43.977Z,95001.86
2018-03-28T08:22:12.283Z,95014.03
2018-03-28T08:24:40.590Z,95013.53
2018-03-28T08:27:08.930Z,95011.09
2018-03-28T08:29:37.244Z,95028.17
2018-03-28T08:32:05.586Z,95015.92
2018-03-28T08:34:33.950Z,95000.00
2018-03-28T08:37:02.336Z,94998.47
2018-03-28T08:39:30.703Z,95003.92
2018-03-28T08:41:59.031Z,95004.83
2018-03-28T08:44:27.331Z,94994.91
2018-03-28T08:46:55.653Z,95002.47
2018-03-28T08:49:23.967Z,95004.36
2018-03-28T08:51:52.395Z,94997.49
2018-03-28T08:54:20.710Z,95007.09
2018-03-28T08:56:49.083Z,94996.27
2018-03-28T08:59:17.406Z,94994.21
2018-03-28T09:01:45.748Z,94997.20
2018-03-28T09:04:15.041Z,94990.33
2018-03-28T09:06:43.388Z,94995.22
2018-03-28T09:09:11.766Z,94986.06
2018-03-28T09:11:40.121Z,94982.16
2018-03-28T09:14:08.439Z,94985.11
2018-03-28T09:16:36.775Z,94980.96
2018-03-28T09:19:05.094Z,94978.06
2018-03-28T09:21:33.444Z,94969.96
2018-03-28T09:24:01.823Z,94970.78
2018-03-28T09:26:30.333Z,94974.02
2018-03-28T09:28:58.672Z,94961.67
2018-03-28T09:31:27.063Z,94953.69
2018-03-28T09:33:55.403Z,94967.90
2018-03-28T09:36:23.811Z,94958.73
2018-03-28T09:38:52.187Z,94949.63
2018-03-28T09:41:20.566Z,94962.13
2018-03-28T09:43:48.942Z,94958.94
2018-03-28T09:46:17.322Z,94959.99
2018-03-28T09:48:45.774Z,94963.39
2018-03-28T09:51:14.092Z,94959.34
2018-03-28T09:53:42.413Z,94969.21
2018-03-28T09:56:10.737Z,94947.83
2018-03-28T09:58:39.105Z,94951.02
2018-03-28T10:01:08.200Z,94942.30
2018-03-28T10:03:42.081Z,94954.00
2018-03-28T10:06:10.404Z,94958.36
2018-03-28T10:08:38.756Z,94939.58
2018-03-28T10:11:08.071Z,94946.03
2018-03-28T10:13:36.391Z,94929.47
2018-03-28T10:16:04.723Z,94939.25
2018-03-28T10:18:33.080Z,94934.39
2018-03-28T10:21:01.393Z,94938.32
2018-03-28T10:23:29.719Z,94934.77
2018-03-28T10:25:58.051Z,94930.05
2018-03-28T10:28:26.359Z,94925.36
2018-03-28T10:30:54.774Z,94928.34
2018-03-28T10:33:23.231Z,94921.44
2018-03-28T10:35:51.667Z,94918.30
2018-03-28T10:38:19.971Z,94924.15
2018-03-28T10:40:48.309Z,94913.44
2018-03-28T10:43:16.682Z,94910.94
2018-03-28T10:45:45.020Z,94912.97
2018-03-28T10:48:13.338Z,94916.40
2018-03-28T10:50:41.670Z,94910.30
2018-03-28T10:53:10.014Z,94921.30
2018-03-28T10:55:38.383Z,94916.80
2018-03-28T10:58:06.705Z,94912.13
2018-03-28T11:00:35.035Z,94934.83
2018-03-28T11:03:03.410Z,94905.44
2018-03-28T11:05:31.757Z,94899.70
2018-03-28T11:08:00.087Z,94897.58
2018-03-28T11:10:28.422Z,94915.23
2018-03-28T11:12:56.731Z,94905.97
2018-03-28T11:15:25.092Z,94889.94
2018-03-28T11:17:53.470Z,94901.47
2018-03-28T11:20:21.796Z,94893.45
2018-03-28T11:22:50.128Z,94882.77
2018-03-28T11:25:18.608Z,94898.62
2018-03-28T11:27:46.982Z,94887.50
2018-03-28T11:30:15.306Z,94894.52
2018-03-28T11:32:43.631Z,94894.80
2018-03-28T11:35:12.023Z,94892.20
2018-03-28T11:37:40.385Z,94883.88
2018-03-28T11:40:08.763Z,94881.91
2018-03-28T11:42:37.143Z,94877.66
2018-03-28T11:45:05.469Z,94872.88
2018-03-28T11:47:34.203Z,94881.75
2018-03-28T11:50:02.478Z,94865.08
2018-03-28T11:52:30.818Z,94868.25
2018-03-28T11:54:59.126Z,94859.94
2018-03-28T11:57:27.471Z,94855.63
2018-03-28T11:59:55.786Z,94880.19
2018-03-28T12:02:24.166Z,94870.55
2018-03-28T12:04:52.472Z,94862.70
2018-03-28T12:07:20.810Z,94853.25
2018-03-28T12:09:49.133Z,94851.50
2018-03-28T12:12:17.469Z,94840.72
2018-03-28T12:14:45.790Z,94843.15
2018-03-28T12:17:14.118Z,94846.83
2018-03-28T12:19:42.458Z,94838.98
2018-03-28T12:22:10.771Z,94836.94
2018-03-28T12:24:39.162Z,94827.06
2018-03-28T12:27:07.531Z,94833.31
2018-03-28T12:29:35.910Z,94834.95
2018-03-28T12:32:04.265Z,94839.91
2018-03-28T12:34:32.686Z,94827.72
2018-03-28T12:37:01.066Z,94818.00
2018-03-28T12:39:29.437Z,94814.61
2018-03-28T12:41:57.759Z,94820.03
2018-03-28T12:44:26.100Z,94822.84
2018-03-28T12:46:54.417Z,94812.98
2018-03-28T12:49:22.847Z,94816.31
2018-03-28T12:51:51.174Z,94816.13
2018-03-28T12:54:19.644Z,94809.69
2018-03-28T12:56:47.930Z,94809.05
2018-03-28T12:59:16.586Z,94804.76
2018-03-28T13:01:44.939Z,94803.15
2018-03-28T13:04:13.294Z,94789.20
2018-03-28T13:06:41.603Z,94781.14
2018-03-28T13:09:09.978Z,94775.59
2018-03-28T13:11:38.350Z,94774.16
2018-03-28T13:14:06.727Z,94786.89
2018-03-28T13:16:35.152Z,94778.78
2018-03-28T13:19:03.586Z,94784.20
2018-03-28T13:21:31.934Z,94778.13
2018-03-28T13:24:00.348Z,94785.57
2018-03-28T13:26:28.747Z,94782.95
2018-03-28T13:28:57.107Z,94784.09
2018-03-28T13:31:25.451Z,94774.53
2018-03-28T13:33:53.869Z,94780.29
2018-03-28T13:36:22.247Z,94762.07
2018-03-28T13:38:50.571Z,94765.64
2018-03-28T13:41:19.909Z,94765.09
2018-03-28T13:43:48.291Z,94752.84
2018-03-28T13:46:16.638Z,94761.16
2018-03-28T13:48:44.951Z,94750.45
2018-03-28T13:51:13.371Z,94747.50
2018-03-28T13:53:41.666Z,94743.55
2018-03-28T13:56:10.014Z,94736.85
2018-03-28T13:58:38.468Z,94729.91
2018-03-28T14:01:06.869Z,94728.69
2018-03-28T14:03:35.194Z,94719.66
2018-03-28T14:06:03.540Z,94710.42
2018-03-28T14:08:31.865Z,94745.44
2018-03-28T14:11:00.203Z,94703.65
2018-03-28T14:13:28.547Z,94705.41
2018-03-28T14:15:56.895Z,94703.70
2018-03-28T14:18:25.211Z,94706.11
2018-03-28T14:20:53.563Z,94690.78
2018-03-28T14:23:21.895Z,94679.86
2018-03-28T14:25:50.227Z,94676.11
2018-03-28T14:28:18.611Z,94678.11
2018-03-28T14:30:46.935Z,94660.27
2018-03-28T14:33:15.310Z,94677.62
2018-03-28T14:35:43.662Z,94673.87
2018-03-28T14:38:11.964Z,94672.22
2018-03-28T14:40:40.271Z,94661.55
2018-03-28T14:43:08.615Z,94653.05
2018-03-28T14:45:36.934Z,94650.94
2018-03-28T14:48:05.331Z,94648.88
2018-03-28T14:50:33.660Z,94644.38
2018-03-28T14:53:02.124Z,94639.06
2018-03-28T14:55:30.411Z,94640.91
2018-03-28T14:57:58.862Z,94633.69
2018-03-28T15:00:27.171Z,94626.80
2018-03-28T15:02:55.508Z,94626.42
2018-03-28T15:05:23.822Z,94624.83
2018-03-28T15:07:52.238Z,94625.88
2018-03-28T15:10:20.562Z,94613.55
2018-03-28T15:12:48.911Z,94614.02
2018-03-28T15:15:17.232Z,94612.07
2018-03-28T15:17:45.665Z,94606.70
2018-03-28T15:20:13.990Z,94606.72
2018-03-28T15:22:42.310Z,94606.23
2018-03-28T15:25:10.655Z,94609.14
2018-03-28T15:27:38.979Z,94601.79
2018-03-28T15:30:07.325Z,94598.91
2018-03-28T15:32:35.651Z,94598.80
2018-03-28T15:35:03.982Z,94601.15
2018-03-28T15:37:32.416Z,94593.75
2018-03-28T15:40:00.750Z,94600.00
2018-03-28T15:42:29.077Z,94598.95
2018-03-28T15:44:57.469Z,94595.40
2018-03-28T15:47:25.787Z,94590.79
2018-03-28T15:49:54.166Z,94587.84
2018-03-28T15:52:22.540Z,94590.09
2018-03-28T15:54:50.886Z,94593.80
2018-03-28T15:57:19.199Z,94596.39
2018-03-28T15:59:47.555Z,94590.97
2018-03-28T16:02:15.949Z,94592.41
2018-03-28T16:04:44.306Z,94598.52
2018-03-28T16:07:12.708Z,94583.80
2018-03-28T16:09:41.060Z,94589.93
2018-03-28T16:12:09.473Z,94585.95
2018-03-28T16:14:37.808Z,94586.78
2018-03-28T16:17:06.279Z,94580.22
2018-03-28T16:19:34.563Z,94576.13
2018-03-28T16:22:03.021Z,94565.38
2018-03-28T16:24:31.332Z,94567.70
2018-03-28T16:26:59.772Z,94577.20
2018-03-28T16:29:28.159Z,94567.59
2018-03-28T16:31:56.475Z,94568.73
2018-03-28T16:34:24.805Z,94566.83
2018-03-28T16:36:53.150Z,94573.42
2018-03-28T16:39:21.465Z,94563.20
2018-03-28T16:41:49.782Z,94561.83
2018-03-28T16:44:18.107Z,94558.94
2018-03-28T16:46:46.441Z,94555.16
2018-03-28T16:49:14.848Z,94551.27
2018-03-28T16:51:43.291Z,94542.14
2018-03-28T16:54:11.599Z,94540.19
2018-03-28T16:56:39.939Z,94534.98
2018-03-28T16:59:08.474Z,94544.33
2018-03-28T17:01:36.827Z,94531.61
2018-03-28T17:04:05.135Z,94531.40
2018-03-28T17:06:33.484Z,94525.63
2018-03-28T17:09:01.820Z,94525.46
2018-03-28T17:11:30.198Z,94525.39
2018-03-28T17:13:58.527Z,94536.40
2018-03-28T17:16:26.916Z,94530.56
2018-03-28T17:18:55.296Z,94528.45
2018-03-28T17:21:23.655Z,94522.58
2018-03-28T17:23:52.021Z,94525.08
2018-03-28T17:26:20.359Z,94515.39
2018-03-28T17:28:48.707Z,94523.41
2018-03-28T17:31:17.051Z,94521.97
2018-03-28T17:33:45.390Z,94519.34
2018-03-28T17:36:13.811Z,94519.59
2018-03-28T17:38:42.200Z,94522.62
2018-03-28T17:41:10.562Z,94523.04
2018-03-28T17:43:38.905Z,94516.74
2018-03-28T17:46:07.306Z,94515.28
2018-03-28T17:48:35.680Z,94497.59
2018-03-28T17:51:03.981Z,94509.73
2018-03-28T17:53:32.374Z,94503.21
2018-03-28T17:56:00.715Z,94490.18
2018-03-28T17:58:29.075Z,94504.39
2018-03-28T18:00:57.377Z,94506.48
2018-03-28T18:03:25.727Z,94502.18
2018-03-28T18:05:54.142Z,94508.45
2018-03-28T18:08:22.489Z,94498.73
2018-03-28T18:10:50.831Z,94508.13
2018-03-28T18:13:19.194Z,94511.44
2018-03-28T18:15:47.547Z,94505.63
2018-03-28T18:18:15.903Z,94508.34
2018-03-28T18:20:44.262Z,94497.73
2018-03-28T18:23:12.576Z,94506.13
2018-03-28T18:25:40.926Z,94501.97
2018-03-28T18:28:09.228Z,94501.14
2018-03-28T18:30:37.580Z,94494.63
2018-03-28T18:33:05.902Z,94494.20
2018-03-28T18:35:34.278Z,94488.62
2018-03-28T18:38:02.662Z,94488.50
2018-03-28T18:40:31.109Z,94492.78
2018-03-28T18:42:59.315Z,94489.50
2018-03-28T18:45:27.643Z,94493.03
2018-03-28T18:47:56.347Z,94488.72
2018-03-28T18:50:24.799Z,94488.90
2018-03-28T18:52:53.142Z,94485.77
2018-03-28T18:55:21.530Z,94479.14
2018-03-28T18:57:49.840Z,94479.47
2018-03-28T19:00:18.262Z,94480.14
2018-03-28T19:02:46.588Z,94484.09
2018-03-28T19:05:15.031Z,94484.66
2018-03-28T19:07:44.068Z,94480.75
2018-03-28T19:10:12.414Z,94478.00
2018-03-28T19:12:40.792Z,94481.24
2018-03-28T19:15:09.154Z,94476.13
2018-03-28T19:17:37.494Z,94472.20
2018-03-28T19:20:05.860Z,94478.44
2018-03-28T19:22:34.195Z,94474.41
2018-03-28T19:25:02.572Z,94474.84
2018-03-28T19:27:31.045Z,94469.28
2018-03-28T19:29:59.355Z,94472.31
2018-03-28T19:32:27.687Z,94476.19
2018-03-28T19:34:56.075Z,94481.67
2018-03-28T19:37:24.457Z,94484.05
2018-03-28T19:39:52.842Z,94473.66
2018-03-28T19:42:21.163Z,94474.20
2018-03-28T19:44:50.466Z,94475.80
2018-03-28T19:47:18.796Z,94476.80
2018-03-28T19:49:47.210Z,94472.56
2018-03-28T19:52:15.545Z,94469.95
2018-03-28T19:54:43.926Z,94467.11
2018-03-28T19:57:12.256Z,94471.38
2018-03-28T19:59:40.554Z,94465.38
2018-03-28T20:02:08.986Z,94463.52
2018-03-28T20:04:37.280Z,94451.80
2018-03-28T20:07:05.721Z,94460.20
2018-03-28T20:09:34.089Z,94454.44
2018-03-28T20:12:02.427Z,94458.36
2018-03-28T20:14:30.784Z,94459.45
2018-03-28T20:16:59.130Z,94456.39
2018-03-28T20:19:27.426Z,94456.36
2018-03-28T20:21:55.742Z,94452.34
2018-03-28T20:24:24.166Z,94449.10
2018-03-28T20:26:52.483Z,94445.61
2018-03-28T20:29:20.921Z,94441.34
2018-03-28T20:31:49.302Z,94439.92
2018-03-28T20:34:17.644Z,94442.30
2018-03-28T20:36:45.961Z,94436.39
2018-03-28T20:39:14.293Z,94443.12
2018-03-28T20:41:42.607Z,94457.57
2018-03-28T20:44:10.938Z,94439.92
2018-03-28T20:46:39.283Z,94443.73
2018-03-28T20:49:07.651Z,94441.09
2018-03-28T20:51:36.019Z,94480.11
2018-03-28T20:54:04.387Z,94444.32
2018-03-28T20:56:32.771Z,94444.04
2018-03-28T20:59:01.807Z,94444.00
2018-03-28T21:01:30.215Z,94445.42
2018-03-28T21:03:58.619Z,94456.70
2018-03-28T21:06:26.930Z,94450.64
2018-03-28T21:08:55.370Z,94463.08
2018-03-28T21:11:23.687Z,94439.53
2018-03-28T21:13:52.022Z,94447.38
2018-03-28T21:16:20.410Z,94441.57
2018-03-28T21:18:48.757Z,94444.98
2018-03-28T21:21:17.058Z,94460.19
2018-03-28T21:23:45.399Z,94450.86
2018-03-28T21:26:13.710Z,94456.98
2018-03-28T21:28:42.082Z,94456.09
2018-03-28T21:31:10.419Z,94473.72
2018-03-28T21:33:38.751Z,94458.83
2018-03-28T21:36:07.091Z,94468.02
2018-03-28T21:38:35.491Z,94477.79
2018-03-28T21:41:03.877Z,94475.05
2018-03-28T21:43:32.135Z,94469.31
2018-03-28T21:46:00.460Z,94477.19
2018-03-28T21:48:28.782Z,94480.89
2018-03-28T21:50:57.182Z,94481.06
2018-03-28T21:53:25.494Z,94488.65
2018-03-28T21:55:53.836Z,94491.78
2018-03-28T21:58:22.162Z,94491.08
2018-03-28T22:00:50.501Z,94493.39
2018-03-28T22:03:18.828Z,94497.98
2018-03-28T22:05:47.160Z,94496.16
2018-03-28T22:08:15.531Z,94497.73
2018-03-28T22:10:43.889Z,94503.21
2018-03-28T22:13:12.286Z,94501.71
2018-03-28T22:15:40.651Z,94492.73
2018-03-28T22:18:09.060Z,94484.91
2018-03-28T22:20:37.424Z,94490.81
2018-03-28T22:23:05.742Z,94492.55
2018-03-28T22:25:34.089Z,94492.42
2018-03-28T22:28:02.470Z,94492.27
2018-03-28T22:30:30.842Z,94485.97
2018-03-28T22:32:59.184Z,94494.41
2018-03-28T22:35:27.492Z,94496.89
2018-03-28T22:37:55.822Z,94498.67
2018-03-28T22:40:24.142Z,94503.30
2018-03-28T22:42:52.525Z,94497.40
2018-03-28T22:45:20.835Z,94505.30
2018-03-28T22:47:49.154Z,94506.97
2018-03-28T22:50:17.495Z,94500.98
2018-03-28T22:52:45.855Z,94506.99
2018-03-28T22:55:14.174Z,94500.84
2018-03-28T22:57:42.587Z,94510.19
2018-03-28T23:00:10.967Z,94514.11
2018-03-28T23:02:39.307Z,94518.30
2018-03-28T23:05:07.730Z,94526.45
2018-03-28T23:07:36.206Z,94513.46
2018-03-28T23:10:04.633Z,94529.12
2018-03-28T23:12:32.955Z,94533.02
2018-03-28T23:15:01.262Z,94539.17
2018-03-28T23:17:29.662Z,94525.97
2018-03-28T23:19:58.012Z,94527.33
2018-03-28T23:22:37.436Z,94530.08
2018-03-28T23:25:05.739Z,94525.23
2018-03-28T23:27:34.071Z,94519.09
2018-03-28T23:30:02.370Z,94530.03
2018-03-28T23:32:30.699Z,94531.49
2018-03-28T23:34:59.034Z,94537.90
2018-03-28T23:37:27.483Z,94546.91
2018-03-28T23:39:55.844Z,94541.11
2018-03-28T23:42:24.210Z,94541.72
2018-03-28T23:44:52.646Z,94543.48
2018-03-28T23:47:20.960Z,94545.22
2018-03-28T23:49:49.305Z,94551.50
2018-03-28T23:52:17.666Z,94553.08
2018-03-28T23:54:46.005Z,94552.62
2018-03-28T23:57:14.304Z,94548.39
2018-03-28T23:59:42.693Z,94542.42
